sensor_id;sensor_type;location;lat;lon;timestamp;P1;durP1;ratioP1;P2;durP2;ratioP2
76176;SDS011;64938;47.696;8.066;2023-02-28T00:01:09;15.93;;;7.23;;
76176;SDS011;64938;47.696;8.066;2023-02-28T00:03:36;13.53;;;6.13;;
76176;SDS011;64938;47.696;8.066;2023-02-28T00:06:02;16.10;;;7.57;;
76176;SDS011;64938;47.696;8.066;2023-02-28T00:08:29;15.90;;;6.33;;
76176;SDS011;64938;47.696;8.066;2023-02-28T00:11:01;16.37;;;7.03;;
76176;SDS011;64938;47.696;8.066;2023-02-28T00:13:28;15.23;;;6.23;;
76176;SDS011;64938;47.696;8.066;2023-02-28T00:16:00;16.03;;;7.83;;
76176;SDS011;64938;47.696;8.066;2023-02-28T00:18:29;16.07;;;7.47;;
76176;SDS011;64938;47.696;8.066;2023-02-28T00:20:58;15.50;;;6.50;;
76176;SDS011;64938;47.696;8.066;2023-02-28T00:23:24;16.27;;;7.43;;
76176;SDS011;64938;47.696;8.066;2023-02-28T00:25:50;16.10;;;6.80;;
76176;SDS011;64938;47.696;8.066;2023-02-28T00:28:16;15.80;;;6.63;;
76176;SDS011;64938;47.696;8.066;2023-02-28T00:30:42;17.67;;;7.10;;
76176;SDS011;64938;47.696;8.066;2023-02-28T00:33:08;17.53;;;6.73;;
76176;SDS011;64938;47.696;8.066;2023-02-28T00:35:34;15.90;;;7.00;;
76176;SDS011;64938;47.696;8.066;2023-02-28T00:38:00;16.00;;;6.90;;
76176;SDS011;64938;47.696;8.066;2023-02-28T00:40:26;15.50;;;7.03;;
76176;SDS011;64938;47.696;8.066;2023-02-28T00:42:54;15.30;;;6.33;;
76176;SDS011;64938;47.696;8.066;2023-02-28T00:45:20;15.50;;;7.10;;
76176;SDS011;64938;47.696;8.066;2023-02-28T00:47:45;15.30;;;6.63;;
76176;SDS011;64938;47.696;8.066;2023-02-28T00:50:15;14.93;;;6.00;;
76176;SDS011;64938;47.696;8.066;2023-02-28T00:52:47;15.67;;;6.90;;
76176;SDS011;64938;47.696;8.066;2023-02-28T00:55:15;15.87;;;7.00;;
76176;SDS011;64938;47.696;8.066;2023-02-28T00:57:40;15.63;;;6.33;;
76176;SDS011;64938;47.696;8.066;2023-02-28T01:00:08;16.23;;;6.77;;
76176;SDS011;64938;47.696;8.066;2023-02-28T01:02:34;16.23;;;7.67;;
76176;SDS011;64938;47.696;8.066;2023-02-28T01:05:03;14.80;;;7.17;;
76176;SDS011;64938;47.696;8.066;2023-02-28T01:07:29;14.93;;;6.90;;
76176;SDS011;64938;47.696;8.066;2023-02-28T01:10:00;16.97;;;7.53;;
76176;SDS011;64938;47.696;8.066;2023-02-28T01:12:26;14.90;;;6.10;;
76176;SDS011;64938;47.696;8.066;2023-02-28T01:14:51;15.73;;;7.40;;
76176;SDS011;64938;47.696;8.066;2023-02-28T01:17:17;18.10;;;7.60;;
76176;SDS011;64938;47.696;8.066;2023-02-28T01:19:43;16.07;;;7.83;;
76176;SDS011;64938;47.696;8.066;2023-02-28T01:22:08;17.60;;;7.10;;
76176;SDS011;64938;47.696;8.066;2023-02-28T01:24:34;16.43;;;6.93;;
76176;SDS011;64938;47.696;8.066;2023-02-28T01:27:00;17.87;;;7.10;;
76176;SDS011;64938;47.696;8.066;2023-02-28T01:29:25;16.90;;;7.93;;
76176;SDS011;64938;47.696;8.066;2023-02-28T01:31:51;15.20;;;6.83;;
76176;SDS011;64938;47.696;8.066;2023-02-28T01:34:16;15.03;;;6.80;;
76176;SDS011;64938;47.696;8.066;2023-02-28T01:36:44;15.40;;;7.33;;
76176;SDS011;64938;47.696;8.066;2023-02-28T01:39:14;19.07;;;8.30;;
76176;SDS011;64938;47.696;8.066;2023-02-28T01:41:40;15.50;;;6.90;;
76176;SDS011;64938;47.696;8.066;2023-02-28T01:47:08;16.67;;;7.60;;
76176;SDS011;64938;47.696;8.066;2023-02-28T01:49:34;16.80;;;8.20;;
76176;SDS011;64938;47.696;8.066;2023-02-28T01:52:03;17.30;;;8.03;;
76176;SDS011;64938;47.696;8.066;2023-02-28T01:54:31;16.43;;;7.23;;
76176;SDS011;64938;47.696;8.066;2023-02-28T01:57:09;19.70;;;7.90;;
76176;SDS011;64938;47.696;8.066;2023-02-28T01:59:45;16.70;;;6.60;;
76176;SDS011;64938;47.696;8.066;2023-02-28T02:02:15;17.73;;;8.30;;
76176;SDS011;64938;47.696;8.066;2023-02-28T02:04:46;19.40;;;7.80;;
76176;SDS011;64938;47.696;8.066;2023-02-28T02:07:16;16.47;;;8.33;;
76176;SDS011;64938;47.696;8.066;2023-02-28T02:09:42;17.33;;;7.67;;
76176;SDS011;64938;47.696;8.066;2023-02-28T02:12:12;17.17;;;7.60;;
76176;SDS011;64938;47.696;8.066;2023-02-28T02:17:48;17.97;;;7.50;;
76176;SDS011;64938;47.696;8.066;2023-02-28T02:23:10;16.90;;;7.40;;
76176;SDS011;64938;47.696;8.066;2023-02-28T02:25:42;18.60;;;7.83;;
76176;SDS011;64938;47.696;8.066;2023-02-28T02:28:40;18.83;;;8.53;;
76176;SDS011;64938;47.696;8.066;2023-02-28T02:31:32;18.70;;;7.90;;
76176;SDS011;64938;47.696;8.066;2023-02-28T02:34:29;18.07;;;8.60;;
76176;SDS011;64938;47.696;8.066;2023-02-28T02:40:02;20.60;;;8.57;;
76176;SDS011;64938;47.696;8.066;2023-02-28T02:45:22;18.00;;;8.13;;
76176;SDS011;64938;47.696;8.066;2023-02-28T02:47:48;17.53;;;8.10;;
76176;SDS011;64938;47.696;8.066;2023-02-28T02:50:19;17.83;;;8.70;;
76176;SDS011;64938;47.696;8.066;2023-02-28T02:52:50;17.90;;;8.30;;
76176;SDS011;64938;47.696;8.066;2023-02-28T02:55:20;18.23;;;8.40;;
76176;SDS011;64938;47.696;8.066;2023-02-28T02:57:47;18.77;;;8.33;;
76176;SDS011;64938;47.696;8.066;2023-02-28T03:00:16;16.90;;;8.10;;
76176;SDS011;64938;47.696;8.066;2023-02-28T03:02:43;18.03;;;8.40;;
76176;SDS011;64938;47.696;8.066;2023-02-28T03:05:20;17.33;;;8.97;;
76176;SDS011;64938;47.696;8.066;2023-02-28T03:07:49;18.23;;;8.23;;
76176;SDS011;64938;47.696;8.066;2023-02-28T03:10:32;18.33;;;8.70;;
76176;SDS011;64938;47.696;8.066;2023-02-28T03:13:14;18.97;;;7.73;;
76176;SDS011;64938;47.696;8.066;2023-02-28T03:24:08;20.93;;;8.83;;
76176;SDS011;64938;47.696;8.066;2023-02-28T03:26:43;17.63;;;8.53;;
76176;SDS011;64938;47.696;8.066;2023-02-28T03:29:33;18.90;;;9.20;;
76176;SDS011;64938;47.696;8.066;2023-02-28T03:34:33;18.10;;;8.80;;
76176;SDS011;64938;47.696;8.066;2023-02-28T03:37:03;17.90;;;7.83;;
76176;SDS011;64938;47.696;8.066;2023-02-28T03:39:41;16.63;;;8.10;;
76176;SDS011;64938;47.696;8.066;2023-02-28T03:42:11;17.90;;;8.57;;
76176;SDS011;64938;47.696;8.066;2023-02-28T03:44:43;18.27;;;8.60;;
76176;SDS011;64938;47.696;8.066;2023-02-28T03:47:16;18.73;;;8.87;;
76176;SDS011;64938;47.696;8.066;2023-02-28T03:49:57;20.30;;;9.40;;
76176;SDS011;64938;47.696;8.066;2023-02-28T03:52:27;19.87;;;10.33;;
76176;SDS011;64938;47.696;8.066;2023-02-28T03:54:59;20.40;;;8.97;;
76176;SDS011;64938;47.696;8.066;2023-02-28T03:58:11;19.17;;;9.53;;
76176;SDS011;64938;47.696;8.066;2023-02-28T04:00:30;20.47;;;9.23;;
76176;SDS011;64938;47.696;8.066;2023-02-28T04:02:58;16.20;;;8.33;;
76176;SDS011;64938;47.696;8.066;2023-02-28T04:05:24;18.30;;;8.97;;
76176;SDS011;64938;47.696;8.066;2023-02-28T04:07:52;17.20;;;8.50;;
76176;SDS011;64938;47.696;8.066;2023-02-28T04:10:24;18.40;;;8.50;;
76176;SDS011;64938;47.696;8.066;2023-02-28T04:12:50;22.10;;;8.90;;
76176;SDS011;64938;47.696;8.066;2023-02-28T04:15:16;16.93;;;6.97;;
76176;SDS011;64938;47.696;8.066;2023-02-28T04:17:44;21.50;;;9.60;;
76176;SDS011;64938;47.696;8.066;2023-02-28T04:20:10;19.30;;;9.30;;
76176;SDS011;64938;47.696;8.066;2023-02-28T04:22:36;20.97;;;10.10;;
76176;SDS011;64938;47.696;8.066;2023-02-28T04:25:02;20.03;;;9.67;;
76176;SDS011;64938;47.696;8.066;2023-02-28T04:27:28;17.80;;;7.83;;
76176;SDS011;64938;47.696;8.066;2023-02-28T04:29:54;19.20;;;9.03;;
76176;SDS011;64938;47.696;8.066;2023-02-28T04:32:19;19.23;;;8.57;;
76176;SDS011;64938;47.696;8.066;2023-02-28T04:34:45;19.90;;;9.73;;
76176;SDS011;64938;47.696;8.066;2023-02-28T04:37:13;22.20;;;10.97;;
76176;SDS011;64938;47.696;8.066;2023-02-28T04:39:41;20.40;;;10.03;;
76176;SDS011;64938;47.696;8.066;2023-02-28T04:42:07;20.60;;;9.60;;
76176;SDS011;64938;47.696;8.066;2023-02-28T04:44:34;19.50;;;8.73;;
76176;SDS011;64938;47.696;8.066;2023-02-28T04:47:00;20.30;;;9.00;;
76176;SDS011;64938;47.696;8.066;2023-02-28T04:49:25;18.30;;;8.70;;
76176;SDS011;64938;47.696;8.066;2023-02-28T04:51:51;19.50;;;8.87;;
76176;SDS011;64938;47.696;8.066;2023-02-28T04:54:17;17.60;;;8.60;;
76176;SDS011;64938;47.696;8.066;2023-02-28T04:56:43;19.37;;;9.50;;
76176;SDS011;64938;47.696;8.066;2023-02-28T04:59:09;18.43;;;9.13;;
76176;SDS011;64938;47.696;8.066;2023-02-28T05:01:37;19.83;;;9.50;;
76176;SDS011;64938;47.696;8.066;2023-02-28T05:04:05;19.77;;;9.83;;
76176;SDS011;64938;47.696;8.066;2023-02-28T05:06:31;20.50;;;9.70;;
76176;SDS011;64938;47.696;8.066;2023-02-28T05:08:58;20.17;;;9.50;;
76176;SDS011;64938;47.696;8.066;2023-02-28T05:11:28;20.60;;;9.77;;
76176;SDS011;64938;47.696;8.066;2023-02-28T05:13:59;17.37;;;8.70;;
76176;SDS011;64938;47.696;8.066;2023-02-28T05:16:29;19.10;;;9.60;;
76176;SDS011;64938;47.696;8.066;2023-02-28T05:18:54;17.10;;;8.13;;
76176;SDS011;64938;47.696;8.066;2023-02-28T05:21:30;18.47;;;8.57;;
76176;SDS011;64938;47.696;8.066;2023-02-28T05:24:09;19.77;;;9.13;;
76176;SDS011;64938;47.696;8.066;2023-02-28T05:26:37;18.27;;;9.27;;
76176;SDS011;64938;47.696;8.066;2023-02-28T05:29:04;17.37;;;7.90;;
76176;SDS011;64938;47.696;8.066;2023-02-28T05:31:50;21.13;;;9.53;;
76176;SDS011;64938;47.696;8.066;2023-02-28T05:34:16;18.17;;;9.23;;
76176;SDS011;64938;47.696;8.066;2023-02-28T05:36:42;20.40;;;9.60;;
76176;SDS011;64938;47.696;8.066;2023-02-28T05:39:08;16.77;;;8.90;;
76176;SDS011;64938;47.696;8.066;2023-02-28T05:41:38;18.07;;;8.50;;
76176;SDS011;64938;47.696;8.066;2023-02-28T05:44:04;18.47;;;8.93;;
76176;SDS011;64938;47.696;8.066;2023-02-28T05:46:35;19.50;;;9.27;;
76176;SDS011;64938;47.696;8.066;2023-02-28T05:49:01;18.67;;;10.10;;
76176;SDS011;64938;47.696;8.066;2023-02-28T05:51:26;19.77;;;9.37;;
76176;SDS011;64938;47.696;8.066;2023-02-28T05:53:52;19.10;;;9.33;;
76176;SDS011;64938;47.696;8.066;2023-02-28T05:56:18;17.87;;;8.60;;
76176;SDS011;64938;47.696;8.066;2023-02-28T05:58:43;20.57;;;9.70;;
76176;SDS011;64938;47.696;8.066;2023-02-28T06:01:23;22.17;;;10.93;;
76176;SDS011;64938;47.696;8.066;2023-02-28T06:04:06;18.20;;;9.00;;
76176;SDS011;64938;47.696;8.066;2023-02-28T06:06:33;19.90;;;9.43;;
76176;SDS011;64938;47.696;8.066;2023-02-28T06:09:03;19.70;;;8.73;;
76176;SDS011;64938;47.696;8.066;2023-02-28T06:11:31;19.90;;;10.13;;
76176;SDS011;64938;47.696;8.066;2023-02-28T06:14:01;19.77;;;9.27;;
76176;SDS011;64938;47.696;8.066;2023-02-28T06:16:27;19.33;;;9.30;;
76176;SDS011;64938;47.696;8.066;2023-02-28T06:18:54;18.33;;;8.47;;
76176;SDS011;64938;47.696;8.066;2023-02-28T06:21:23;17.90;;;9.30;;
76176;SDS011;64938;47.696;8.066;2023-02-28T06:23:49;17.93;;;9.27;;
76176;SDS011;64938;47.696;8.066;2023-02-28T06:26:14;20.33;;;9.47;;
76176;SDS011;64938;47.696;8.066;2023-02-28T06:28:41;18.60;;;9.70;;
76176;SDS011;64938;47.696;8.066;2023-02-28T06:31:13;20.17;;;9.00;;
76176;SDS011;64938;47.696;8.066;2023-02-28T06:33:40;18.10;;;8.40;;
76176;SDS011;64938;47.696;8.066;2023-02-28T06:36:08;19.40;;;9.10;;
76176;SDS011;64938;47.696;8.066;2023-02-28T06:38:34;19.77;;;9.03;;
76176;SDS011;64938;47.696;8.066;2023-02-28T06:41:01;19.10;;;9.40;;
76176;SDS011;64938;47.696;8.066;2023-02-28T06:43:28;20.07;;;10.43;;
76176;SDS011;64938;47.696;8.066;2023-02-28T06:46:01;19.07;;;9.60;;
76176;SDS011;64938;47.696;8.066;2023-02-28T06:48:30;19.40;;;9.43;;
76176;SDS011;64938;47.696;8.066;2023-02-28T06:51:05;18.13;;;10.23;;
76176;SDS011;64938;47.696;8.066;2023-02-28T06:53:36;18.73;;;9.80;;
76176;SDS011;64938;47.696;8.066;2023-02-28T06:56:05;17.73;;;8.87;;
76176;SDS011;64938;47.696;8.066;2023-02-28T06:58:32;20.57;;;9.80;;
76176;SDS011;64938;47.696;8.066;2023-02-28T07:00:58;17.40;;;8.77;;
76176;SDS011;64938;47.696;8.066;2023-02-28T07:03:23;18.90;;;9.30;;
76176;SDS011;64938;47.696;8.066;2023-02-28T07:05:49;19.20;;;9.80;;
76176;SDS011;64938;47.696;8.066;2023-02-28T07:08:16;19.10;;;9.60;;
76176;SDS011;64938;47.696;8.066;2023-02-28T07:10:41;20.83;;;10.47;;
76176;SDS011;64938;47.696;8.066;2023-02-28T07:13:09;19.30;;;8.90;;
76176;SDS011;64938;47.696;8.066;2023-02-28T07:15:36;21.37;;;10.23;;
76176;SDS011;64938;47.696;8.066;2023-02-28T07:18:02;17.70;;;9.33;;
76176;SDS011;64938;47.696;8.066;2023-02-28T07:20:31;19.60;;;10.17;;
76176;SDS011;64938;47.696;8.066;2023-02-28T07:22:57;19.37;;;9.70;;
76176;SDS011;64938;47.696;8.066;2023-02-28T07:25:23;18.03;;;9.20;;
76176;SDS011;64938;47.696;8.066;2023-02-28T07:27:49;21.27;;;10.93;;
76176;SDS011;64938;47.696;8.066;2023-02-28T07:30:15;21.37;;;10.50;;
76176;SDS011;64938;47.696;8.066;2023-02-28T07:32:41;22.07;;;10.47;;
76176;SDS011;64938;47.696;8.066;2023-02-28T07:35:07;20.17;;;9.87;;
76176;SDS011;64938;47.696;8.066;2023-02-28T07:37:33;31.83;;;9.70;;
76176;SDS011;64938;47.696;8.066;2023-02-28T07:40:03;46.70;;;11.63;;
76176;SDS011;64938;47.696;8.066;2023-02-28T07:42:36;47.20;;;11.90;;
76176;SDS011;64938;47.696;8.066;2023-02-28T07:45:03;47.97;;;11.80;;
76176;SDS011;64938;47.696;8.066;2023-02-28T07:47:32;48.67;;;12.33;;
76176;SDS011;64938;47.696;8.066;2023-02-28T07:49:58;50.30;;;12.70;;
76176;SDS011;64938;47.696;8.066;2023-02-28T07:52:24;52.10;;;12.63;;
76176;SDS011;64938;47.696;8.066;2023-02-28T07:54:50;49.03;;;12.67;;
76176;SDS011;64938;47.696;8.066;2023-02-28T07:57:16;49.90;;;12.83;;
76176;SDS011;64938;47.696;8.066;2023-02-28T07:59:42;49.67;;;11.63;;
76176;SDS011;64938;47.696;8.066;2023-02-28T08:02:13;49.47;;;12.53;;
76176;SDS011;64938;47.696;8.066;2023-02-28T08:04:43;49.93;;;12.97;;
76176;SDS011;64938;47.696;8.066;2023-02-28T08:07:11;49.63;;;12.87;;
76176;SDS011;64938;47.696;8.066;2023-02-28T08:09:40;50.00;;;12.93;;
76176;SDS011;64938;47.696;8.066;2023-02-28T08:12:08;47.30;;;11.03;;
76176;SDS011;64938;47.696;8.066;2023-02-28T08:14:37;49.90;;;13.23;;
76176;SDS011;64938;47.696;8.066;2023-02-28T08:17:03;47.60;;;12.63;;
76176;SDS011;64938;47.696;8.066;2023-02-28T08:19:29;47.17;;;11.87;;
76176;SDS011;64938;47.696;8.066;2023-02-28T08:21:56;47.60;;;12.20;;
76176;SDS011;64938;47.696;8.066;2023-02-28T08:24:22;46.10;;;11.27;;
76176;SDS011;64938;47.696;8.066;2023-02-28T08:26:52;45.50;;;11.50;;
76176;SDS011;64938;47.696;8.066;2023-02-28T08:29:17;49.67;;;13.17;;
76176;SDS011;64938;47.696;8.066;2023-02-28T08:31:43;48.50;;;12.13;;
76176;SDS011;64938;47.696;8.066;2023-02-28T08:34:13;47.37;;;11.87;;
76176;SDS011;64938;47.696;8.066;2023-02-28T08:36:39;45.93;;;11.13;;
76176;SDS011;64938;47.696;8.066;2023-02-28T08:39:06;47.47;;;12.00;;
76176;SDS011;64938;47.696;8.066;2023-02-28T08:41:36;48.00;;;11.27;;
76176;SDS011;64938;47.696;8.066;2023-02-28T08:44:05;49.40;;;11.63;;
76176;SDS011;64938;47.696;8.066;2023-02-28T08:46:30;46.70;;;11.10;;
76176;SDS011;64938;47.696;8.066;2023-02-28T08:48:56;47.43;;;12.03;;
76176;SDS011;64938;47.696;8.066;2023-02-28T08:51:27;47.00;;;11.87;;
76176;SDS011;64938;47.696;8.066;2023-02-28T08:53:54;47.07;;;11.30;;
76176;SDS011;64938;47.696;8.066;2023-02-28T08:56:25;47.80;;;11.30;;
76176;SDS011;64938;47.696;8.066;2023-02-28T08:58:51;47.63;;;10.27;;
76176;SDS011;64938;47.696;8.066;2023-02-28T09:01:24;46.63;;;10.77;;
76176;SDS011;64938;47.696;8.066;2023-02-28T09:03:54;47.33;;;11.23;;
76176;SDS011;64938;47.696;8.066;2023-02-28T09:06:23;48.40;;;11.60;;
76176;SDS011;64938;47.696;8.066;2023-02-28T09:08:50;43.20;;;10.63;;
76176;SDS011;64938;47.696;8.066;2023-02-28T09:11:16;37.90;;;10.33;;
76176;SDS011;64938;47.696;8.066;2023-02-28T09:13:46;22.70;;;8.37;;
76176;SDS011;64938;47.696;8.066;2023-02-28T09:16:13;22.30;;;9.37;;
76176;SDS011;64938;47.696;8.066;2023-02-28T09:18:44;22.43;;;10.17;;
76176;SDS011;64938;47.696;8.066;2023-02-28T09:21:15;20.57;;;8.87;;
76176;SDS011;64938;47.696;8.066;2023-02-28T09:23:42;23.63;;;9.80;;
76176;SDS011;64938;47.696;8.066;2023-02-28T09:26:12;21.57;;;8.90;;
76176;SDS011;64938;47.696;8.066;2023-02-28T09:28:42;23.20;;;10.57;;
76176;SDS011;64938;47.696;8.066;2023-02-28T09:31:13;20.47;;;8.80;;
76176;SDS011;64938;47.696;8.066;2023-02-28T09:33:39;21.57;;;8.87;;
76176;SDS011;64938;47.696;8.066;2023-02-28T09:36:05;20.77;;;9.30;;
76176;SDS011;64938;47.696;8.066;2023-02-28T09:38:34;18.97;;;8.43;;
76176;SDS011;64938;47.696;8.066;2023-02-28T09:41:01;19.43;;;7.87;;
76176;SDS011;64938;47.696;8.066;2023-02-28T09:43:37;21.30;;;8.70;;
76176;SDS011;64938;47.696;8.066;2023-02-28T09:48:51;20.33;;;8.60;;
76176;SDS011;64938;47.696;8.066;2023-02-28T09:54:21;18.23;;;8.10;;
76176;SDS011;64938;47.696;8.066;2023-02-28T09:56:55;18.77;;;8.50;;
76176;SDS011;64938;47.696;8.066;2023-02-28T10:05:50;19.70;;;8.60;;
76176;SDS011;64938;47.696;8.066;2023-02-28T10:08:27;17.73;;;7.73;;
76176;SDS011;64938;47.696;8.066;2023-02-28T10:10:55;16.73;;;7.63;;
76176;SDS011;64938;47.696;8.066;2023-02-28T10:19:09;17.50;;;7.80;;
76176;SDS011;64938;47.696;8.066;2023-02-28T10:24:49;17.33;;;8.20;;
76176;SDS011;64938;47.696;8.066;2023-02-28T10:27:21;17.83;;;8.60;;
76176;SDS011;64938;47.696;8.066;2023-02-28T10:29:52;17.17;;;8.20;;
76176;SDS011;64938;47.696;8.066;2023-02-28T10:32:23;20.13;;;10.03;;
76176;SDS011;64938;47.696;8.066;2023-02-28T10:35:14;18.97;;;9.90;;
76176;SDS011;64938;47.696;8.066;2023-02-28T10:37:56;17.17;;;8.93;;
76176;SDS011;64938;47.696;8.066;2023-02-28T10:40:28;17.77;;;9.10;;
76176;SDS011;64938;47.696;8.066;2023-02-28T10:43:16;18.30;;;8.87;;
76176;SDS011;64938;47.696;8.066;2023-02-28T10:48:33;17.03;;;8.70;;
76176;SDS011;64938;47.696;8.066;2023-02-28T10:51:11;16.70;;;9.00;;
76176;SDS011;64938;47.696;8.066;2023-02-28T10:56:18;19.80;;;9.47;;
76176;SDS011;64938;47.696;8.066;2023-02-28T11:03:45;18.40;;;10.10;;
76176;SDS011;64938;47.696;8.066;2023-02-28T11:06:16;17.30;;;8.27;;
76176;SDS011;64938;47.696;8.066;2023-02-28T11:08:55;20.00;;;9.20;;
76176;SDS011;64938;47.696;8.066;2023-02-28T11:11:28;19.60;;;9.77;;
76176;SDS011;64938;47.696;8.066;2023-02-28T11:14:02;18.77;;;9.70;;
76176;SDS011;64938;47.696;8.066;2023-02-28T11:16:33;19.80;;;8.40;;
76176;SDS011;64938;47.696;8.066;2023-02-28T11:19:04;19.33;;;9.53;;
76176;SDS011;64938;47.696;8.066;2023-02-28T11:21:36;20.00;;;9.87;;
76176;SDS011;64938;47.696;8.066;2023-02-28T11:27:03;21.43;;;10.03;;
76176;SDS011;64938;47.696;8.066;2023-02-28T11:29:32;22.77;;;10.63;;
76176;SDS011;64938;47.696;8.066;2023-02-28T11:32:11;18.67;;;9.60;;
76176;SDS011;64938;47.696;8.066;2023-02-28T11:34:41;21.13;;;10.00;;
76176;SDS011;64938;47.696;8.066;2023-02-28T11:37:18;19.63;;;10.30;;
76176;SDS011;64938;47.696;8.066;2023-02-28T11:39:47;21.17;;;10.20;;
76176;SDS011;64938;47.696;8.066;2023-02-28T11:47:24;21.33;;;9.50;;
76176;SDS011;64938;47.696;8.066;2023-02-28T11:55:11;21.10;;;10.57;;
76176;SDS011;64938;47.696;8.066;2023-02-28T12:09:09;20.77;;;10.53;;
76176;SDS011;64938;47.696;8.066;2023-02-28T12:11:55;21.17;;;10.57;;
76176;SDS011;64938;47.696;8.066;2023-02-28T12:14:50;22.10;;;10.40;;
76176;SDS011;64938;47.696;8.066;2023-02-28T12:28:25;22.47;;;10.57;;
76176;SDS011;64938;47.696;8.066;2023-02-28T12:31:01;23.87;;;9.80;;
76176;SDS011;64938;47.696;8.066;2023-02-28T12:33:33;28.33;;;11.10;;
76176;SDS011;64938;47.696;8.066;2023-02-28T12:36:01;22.60;;;10.30;;
76176;SDS011;64938;47.696;8.066;2023-02-28T12:38:34;23.57;;;11.57;;
76176;SDS011;64938;47.696;8.066;2023-02-28T12:44:15;23.23;;;11.20;;
76176;SDS011;64938;47.696;8.066;2023-02-28T12:46:58;25.47;;;12.10;;
76176;SDS011;64938;47.696;8.066;2023-02-28T12:49:38;24.10;;;11.00;;
76176;SDS011;64938;47.696;8.066;2023-02-28T12:58:51;26.20;;;11.90;;
76176;SDS011;64938;47.696;8.066;2023-02-28T13:09:54;24.83;;;10.10;;
76176;SDS011;64938;47.696;8.066;2023-02-28T13:12:21;25.70;;;11.80;;
76176;SDS011;64938;47.696;8.066;2023-02-28T13:14:48;24.93;;;10.63;;
76176;SDS011;64938;47.696;8.066;2023-02-28T13:17:21;25.30;;;11.37;;
76176;SDS011;64938;47.696;8.066;2023-02-28T13:22:22;18.60;;;10.27;;
76176;SDS011;64938;47.696;8.066;2023-02-28T13:27:59;16.20;;;12.23;;
76176;SDS011;64938;47.696;8.066;2023-02-28T13:35:43;14.80;;;11.40;;
76176;SDS011;64938;47.696;8.066;2023-02-28T13:38:20;13.87;;;10.40;;
76176;SDS011;64938;47.696;8.066;2023-02-28T13:40:48;15.10;;;11.70;;
76176;SDS011;64938;47.696;8.066;2023-02-28T13:43:17;13.80;;;11.63;;
76176;SDS011;64938;47.696;8.066;2023-02-28T13:46:03;13.70;;;11.30;;
76176;SDS011;64938;47.696;8.066;2023-02-28T13:48:38;13.97;;;10.70;;
76176;SDS011;64938;47.696;8.066;2023-02-28T13:51:26;13.83;;;11.47;;
76176;SDS011;64938;47.696;8.066;2023-02-28T13:54:02;14.43;;;10.97;;
76176;SDS011;64938;47.696;8.066;2023-02-28T13:57:21;15.20;;;11.87;;
76176;SDS011;64938;47.696;8.066;2023-02-28T14:05:26;15.10;;;12.40;;
76176;SDS011;64938;47.696;8.066;2023-02-28T14:07:59;13.30;;;10.80;;
76176;SDS011;64938;47.696;8.066;2023-02-28T14:10:31;14.27;;;11.40;;
76176;SDS011;64938;47.696;8.066;2023-02-28T14:20:45;15.00;;;11.67;;
76176;SDS011;64938;47.696;8.066;2023-02-28T14:26:28;14.17;;;10.57;;
76176;SDS011;64938;47.696;8.066;2023-02-28T14:34:47;15.70;;;11.47;;
76176;SDS011;64938;47.696;8.066;2023-02-28T14:37:20;15.13;;;11.30;;
76176;SDS011;64938;47.696;8.066;2023-02-28T14:39:54;14.47;;;11.47;;
76176;SDS011;64938;47.696;8.066;2023-02-28T14:44:59;16.77;;;12.60;;
76176;SDS011;64938;47.696;8.066;2023-02-28T14:47:28;13.77;;;11.37;;
76176;SDS011;64938;47.696;8.066;2023-02-28T14:49:56;13.70;;;11.10;;
76176;SDS011;64938;47.696;8.066;2023-02-28T14:52:27;15.00;;;11.67;;
76176;SDS011;64938;47.696;8.066;2023-02-28T14:54:59;15.87;;;12.23;;
76176;SDS011;64938;47.696;8.066;2023-02-28T14:57:33;13.67;;;11.43;;
76176;SDS011;64938;47.696;8.066;2023-02-28T15:00:02;13.83;;;11.00;;
76176;SDS011;64938;47.696;8.066;2023-02-28T15:02:38;16.20;;;11.53;;
76176;SDS011;64938;47.696;8.066;2023-02-28T15:07:34;14.10;;;11.87;;
76176;SDS011;64938;47.696;8.066;2023-02-28T15:10:07;17.43;;;11.63;;
76176;SDS011;64938;47.696;8.066;2023-02-28T15:12:41;16.30;;;13.10;;
76176;SDS011;64938;47.696;8.066;2023-02-28T15:15:25;15.70;;;12.33;;
76176;SDS011;64938;47.696;8.066;2023-02-28T15:20:48;17.70;;;13.57;;
76176;SDS011;64938;47.696;8.066;2023-02-28T15:23:15;15.53;;;12.43;;
76176;SDS011;64938;47.696;8.066;2023-02-28T15:25:44;13.27;;;11.33;;
76176;SDS011;64938;47.696;8.066;2023-02-28T15:28:19;16.23;;;13.03;;
76176;SDS011;64938;47.696;8.066;2023-02-28T15:30:52;16.57;;;12.27;;
76176;SDS011;64938;47.696;8.066;2023-02-28T15:33:25;15.17;;;12.00;;
76176;SDS011;64938;47.696;8.066;2023-02-28T15:36:16;17.23;;;12.70;;
76176;SDS011;64938;47.696;8.066;2023-02-28T15:38:51;16.90;;;12.63;;
76176;SDS011;64938;47.696;8.066;2023-02-28T15:41:50;16.97;;;11.77;;
76176;SDS011;64938;47.696;8.066;2023-02-28T15:44:26;15.10;;;11.60;;
76176;SDS011;64938;47.696;8.066;2023-02-28T15:46:59;19.67;;;12.77;;
76176;SDS011;64938;47.696;8.066;2023-02-28T15:49:30;14.20;;;11.47;;
76176;SDS011;64938;47.696;8.066;2023-02-28T15:52:03;16.33;;;12.93;;
76176;SDS011;64938;47.696;8.066;2023-02-28T15:54:32;15.40;;;11.70;;
76176;SDS011;64938;47.696;8.066;2023-02-28T15:57:06;13.43;;;11.20;;
76176;SDS011;64938;47.696;8.066;2023-02-28T15:59:36;14.90;;;11.40;;
76176;SDS011;64938;47.696;8.066;2023-02-28T16:02:04;14.80;;;11.63;;
76176;SDS011;64938;47.696;8.066;2023-02-28T16:04:54;15.70;;;11.80;;
76176;SDS011;64938;47.696;8.066;2023-02-28T16:07:41;16.70;;;12.90;;
76176;SDS011;64938;47.696;8.066;2023-02-28T16:10:14;14.20;;;11.33;;
76176;SDS011;64938;47.696;8.066;2023-02-28T16:12:46;16.23;;;12.17;;
76176;SDS011;64938;47.696;8.066;2023-02-28T16:17:43;15.27;;;13.03;;
76176;SDS011;64938;47.696;8.066;2023-02-28T16:20:12;16.87;;;12.40;;
76176;SDS011;64938;47.696;8.066;2023-02-28T16:22:39;14.17;;;12.50;;
76176;SDS011;64938;47.696;8.066;2023-02-28T16:25:05;15.03;;;12.67;;
76176;SDS011;64938;47.696;8.066;2023-02-28T16:27:35;17.87;;;12.87;;
76176;SDS011;64938;47.696;8.066;2023-02-28T16:30:01;14.37;;;11.67;;
76176;SDS011;64938;47.696;8.066;2023-02-28T16:32:28;18.30;;;12.60;;
76176;SDS011;64938;47.696;8.066;2023-02-28T16:34:53;15.60;;;12.87;;
76176;SDS011;64938;47.696;8.066;2023-02-28T16:37:19;16.73;;;12.10;;
76176;SDS011;64938;47.696;8.066;2023-02-28T16:39:45;17.23;;;12.50;;
76176;SDS011;64938;47.696;8.066;2023-02-28T16:42:15;16.77;;;13.17;;
76176;SDS011;64938;47.696;8.066;2023-02-28T16:44:44;17.77;;;12.13;;
76176;SDS011;64938;47.696;8.066;2023-02-28T16:47:11;14.33;;;11.37;;
76176;SDS011;64938;47.696;8.066;2023-02-28T16:49:37;18.23;;;12.43;;
76176;SDS011;64938;47.696;8.066;2023-02-28T16:52:03;15.63;;;11.93;;
76176;SDS011;64938;47.696;8.066;2023-02-28T16:54:33;17.03;;;12.20;;
76176;SDS011;64938;47.696;8.066;2023-02-28T16:56:59;15.87;;;12.67;;
76176;SDS011;64938;47.696;8.066;2023-02-28T16:59:25;20.50;;;14.20;;
76176;SDS011;64938;47.696;8.066;2023-02-28T17:01:52;18.70;;;12.93;;
76176;SDS011;64938;47.696;8.066;2023-02-28T17:04:18;16.13;;;12.40;;
76176;SDS011;64938;47.696;8.066;2023-02-28T17:06:44;16.63;;;13.53;;
76176;SDS011;64938;47.696;8.066;2023-02-28T17:09:20;15.50;;;12.50;;
76176;SDS011;64938;47.696;8.066;2023-02-28T17:11:47;16.33;;;12.70;;
76176;SDS011;64938;47.696;8.066;2023-02-28T17:14:15;16.80;;;12.87;;
76176;SDS011;64938;47.696;8.066;2023-02-28T17:16:41;16.30;;;12.43;;
76176;SDS011;64938;47.696;8.066;2023-02-28T17:19:13;16.63;;;13.90;;
76176;SDS011;64938;47.696;8.066;2023-02-28T17:21:44;18.30;;;12.83;;